Time;durP1;ratioP1;P1;durP2;ratioP2;P2;SDS_P1;SDS_P2;PMS_P1;PMS_P2;Temp;Humidity;BMP_temperature;BMP_pressure;BME280_temperature;BME280_humidity;BME280_pressure;Samples;Min_cycle;Max_cycle;Signal;HPM_P1;HPM_P2
2021/06/16 00:02:02;;;;;;;5.45;1.20;;;;;;;20.03;56.92;99251.31;5115920;28;20313;-66
2021/06/16 00:04:28;;;;;;;3.75;1.23;;;;;;;20.11;56.89;99266.25;5116000;28;20047;-66
2021/06/16 00:06:55;;;;;;;6.50;1.50;;;;;;;20.13;56.96;99264.16;5121951;28;20027;-66
2021/06/16 00:09:20;;;;;;;5.80;1.60;;;;;;;19.98;56.80;99240.44;5119868;28;20051;-65
2021/06/16 00:11:46;;;;;;;4.72;1.38;;;;;;;20.12;57.46;99266.00;5112944;28;20323;-66
2021/06/16 00:14:11;;;;;;;6.13;1.60;;;;;;;20.11;57.37;99267.06;5115868;28;20038;-66
2021/06/16 00:16:37;;;;;;;1.88;1.30;;;;;;;20.05;57.46;99255.38;5115020;28;20042;-66
2021/06/16 00:19:03;;;;;;;4.13;1.25;;;;;;;20.12;57.29;99263.31;5116233;28;20042;-66
2021/06/16 00:21:28;;;;;;;4.97;1.30;;;;;;;20.13;57.42;99266.84;5114712;28;20020;-66
2021/06/16 00:23:54;;;;;;;5.03;1.38;;;;;;;20.16;57.19;99266.38;5115019;28;20090;-66
2021/06/16 00:26:19;;;;;;;2.72;1.50;;;;;;;20.28;56.56;99259.09;5116191;28;20015;-66
2021/06/16 00:28:45;;;;;;;4.88;1.35;;;;;;;20.21;56.94;99259.22;5114644;28;20382;-66
2021/06/16 00:31:11;;;;;;;7.18;1.58;;;;;;;20.04;57.55;99253.75;5116461;28;20413;-66
2021/06/16 00:33:36;;;;;;;3.20;1.38;;;;;;;20.07;57.61;99244.41;5116897;28;20023;-66
2021/06/16 00:36:02;;;;;;;3.72;2.03;;;;;;;20.14;57.43;99244.28;5114155;28;20094;-66
2021/06/16 00:38:27;;;;;;;3.90;1.48;;;;;;;20.01;57.79;99240.78;5108800;28;20104;-66
2021/06/16 00:40:53;;;;;;;7.13;1.55;;;;;;;20.04;58.00;99239.50;5115456;28;20027;-66
2021/06/16 00:43:18;;;;;;;3.38;1.67;;;;;;;20.02;58.12;99233.53;5114895;28;20216;-66
2021/06/16 00:45:44;;;;;;;6.20;1.50;;;;;;;19.99;58.10;99217.88;5115403;28;20047;-66
2021/06/16 00:48:10;;;;;;;6.32;1.35;;;;;;;19.98;57.98;99222.44;5114351;28;20043;-66
2021/06/16 00:50:37;;;;;;;3.45;1.42;;;;;;;19.95;58.16;99217.53;5115254;28;20055;-66
2021/06/16 00:53:04;;;;;;;3.55;1.35;;;;;;;19.97;58.14;99217.31;5114961;28;20210;-66
2021/06/16 00:55:30;;;;;;;3.35;1.38;;;;;;;19.99;58.21;99218.72;5114393;28;20039;-66
2021/06/16 00:57:57;;;;;;;3.20;1.38;;;;;;;20.04;58.00;99212.63;5113941;28;20364;-66
2021/06/16 01:00:27;;;;;;;3.88;1.63;;;;;;;20.03;58.29;99213.69;5115057;28;20028;-66
2021/06/16 01:03:00;;;;;;;1.83;1.35;;;;;;;20.00;58.09;99209.59;5118002;28;20081;-66
2021/06/16 01:05:37;;;;;;;4.88;1.70;;;;;;;19.99;58.27;99188.34;5118076;28;20045;-66
2021/06/16 01:08:04;;;;;;;2.08;1.38;;;;;;;20.08;58.21;99200.34;5085259;28;20040;-66
2021/06/16 01:10:34;;;;;;;5.82;1.45;;;;;;;20.18;57.92;99191.69;5086717;28;20056;-66
2021/06/16 01:13:09;;;;;;;5.15;1.67;;;;;;;20.19;57.88;99206.75;5113117;28;20035;-66
2021/06/16 01:15:49;;;;;;;2.65;1.38;;;;;;;19.88;58.43;99186.47;5105287;28;20032;-65
2021/06/16 01:18:19;;;;;;;5.13;1.73;;;;;;;20.11;58.71;99215.19;5122490;28;20038;-66
2021/06/16 01:20:49;;;;;;;1.42;1.13;;;;;;;20.15;58.51;99225.22;5125654;28;20028;-66
2021/06/16 01:23:20;;;;;;;5.25;1.60;;;;;;;20.05;58.95;99222.31;5119979;28;20031;-66
2021/06/16 01:26:00;;;;;;;3.72;1.45;;;;;;;20.19;58.63;99223.69;5118097;28;20041;-66
2021/06/16 01:28:31;;;;;;;2.50;1.40;;;;;;;20.03;59.19;99229.81;5118138;28;20031;-66
2021/06/16 01:30:57;;;;;;;2.03;1.42;;;;;;;20.04;59.29;99220.69;5113769;28;20324;-66
2021/06/16 01:33:23;;;;;;;4.75;1.65;;;;;;;20.15;58.86;99222.53;5119172;28;20027;-66
2021/06/16 01:35:52;;;;;;;2.08;1.50;;;;;;;20.10;59.37;99219.75;5120466;28;20102;-66
2021/06/16 01:38:20;;;;;;;3.08;1.50;;;;;;;20.09;59.42;99205.50;5124005;28;20074;-66
2021/06/16 01:40:48;;;;;;;3.63;1.63;;;;;;;20.12;59.46;99212.25;5100393;28;20028;-66
2021/06/16 01:43:16;;;;;;;3.90;1.25;;;;;;;20.17;59.51;99227.69;5096131;28;20331;-66
2021/06/16 01:45:44;;;;;;;2.97;1.35;;;;;;;20.21;59.15;99228.84;5106127;28;20313;-66
2021/06/16 01:48:14;;;;;;;2.97;1.77;;;;;;;20.12;59.72;99219.50;5115879;28;20038;-66
2021/06/16 01:50:42;;;;;;;2.95;1.50;;;;;;;20.16;59.59;99215.28;5118888;28;20039;-66
2021/06/16 01:53:08;;;;;;;4.10;1.17;;;;;;;20.15;59.67;99217.16;5117622;28;20028;-66
2021/06/16 01:55:34;;;;;;;3.83;1.65;;;;;;;20.13;59.68;99221.97;5118395;28;20026;-66
2021/06/16 01:58:01;;;;;;;2.08;1.38;;;;;;;20.13;59.96;99223.81;5118819;28;20206;-66
2021/06/16 02:00:28;;;;;;;6.00;1.60;;;;;;;20.18;59.72;99232.81;5124769;28;20043;-66
2021/06/16 02:02:55;;;;;;;5.97;1.50;;;;;;;20.11;59.98;99223.25;5122408;28;20377;-66
2021/06/16 02:05:21;;;;;;;4.32;1.73;;;;;;;20.15;59.75;99235.97;5117338;28;20329;-66
2021/06/16 02:07:51;;;;;;;3.20;1.50;;;;;;;20.15;59.90;99237.84;5118716;28;20028;-66
2021/06/16 02:10:22;;;;;;;3.65;1.88;;;;;;;20.18;59.92;99238.19;5117364;28;20051;-66
2021/06/16 02:12:50;;;;;;;5.57;1.50;;;;;;;20.19;59.86;99234.44;5115922;28;20038;-66
2021/06/16 02:15:17;;;;;;;8.55;1.73;;;;;;;20.17;60.21;99236.56;5119204;28;20035;-66
2021/06/16 02:17:49;;;;;;;2.53;1.50;;;;;;;20.15;59.99;99233.28;5117683;28;20024;-66
2021/06/16 02:20:19;;;;;;;2.60;1.80;;;;;;;20.12;59.99;99241.00;5116970;28;20262;-66
2021/06/16 02:22:45;;;;;;;6.15;1.63;;;;;;;20.17;60.08;99238.44;5117539;28;20068;-66
2021/06/16 02:25:12;;;;;;;6.10;1.70;;;;;;;20.13;60.11;99238.09;5117992;28;20027;-66
2021/06/16 02:27:38;;;;;;;6.30;1.42;;;;;;;20.25;59.74;99240.75;5117928;28;20020;-66
2021/06/16 02:30:06;;;;;;;4.53;1.80;;;;;;;20.23;59.58;99235.59;5117437;28;20219;-66
2021/06/16 02:32:31;;;;;;;5.93;2.20;;;;;;;20.22;59.59;99246.59;5116315;28;20046;-66
2021/06/16 02:34:58;;;;;;;5.10;1.95;;;;;;;20.38;59.27;99254.75;5117622;28;20359;-66
2021/06/16 02:37:25;;;;;;;2.97;1.70;;;;;;;20.27;59.44;99244.03;5118174;28;20353;-66
2021/06/16 02:40:03;;;;;;;4.28;1.75;;;;;;;20.25;59.66;99259.56;5116235;28;20096;-66
2021/06/16 02:42:29;;;;;;;10.45;2.05;;;;;;;20.25;59.80;99260.38;5116416;28;20288;-66
2021/06/16 02:44:56;;;;;;;5.40;1.98;;;;;;;20.20;59.93;99265.66;5116743;28;20047;-66
2021/06/16 02:47:21;;;;;;;5.05;1.88;;;;;;;20.17;60.26;99279.56;5117764;28;20221;-66
2021/06/16 02:49:54;;;;;;;3.90;1.70;;;;;;;20.20;60.20;99278.28;5117067;28;20024;-66
2021/06/16 02:52:21;;;;;;;3.45;2.05;;;;;;;20.21;60.16;99277.22;5111292;28;20031;-66
2021/06/16 02:54:51;;;;;;;6.38;2.10;;;;;;;20.16;60.20;99260.97;5116490;28;20412;-66
2021/06/16 02:57:22;;;;;;;2.78;2.05;;;;;;;20.20;60.18;99272.91;5115740;28;20318;-66
2021/06/16 02:59:50;;;;;;;2.75;1.90;;;;;;;20.23;59.92;99275.94;5116335;27;20260;-66
2021/06/16 03:02:19;;;;;;;5.53;2.22;;;;;;;20.23;60.03;99283.19;5111545;28;20032;-66
2021/06/16 03:04:46;;;;;;;3.90;1.95;;;;;;;20.26;59.93;99267.41;5115654;28;20032;-66
2021/06/16 03:07:14;;;;;;;5.90;2.28;;;;;;;20.30;59.94;99282.00;5116225;28;20031;-66
2021/06/16 03:09:41;;;;;;;3.30;2.08;;;;;;;20.28;60.11;99280.59;5117296;28;20347;-65
2021/06/16 03:12:07;;;;;;;3.70;2.00;;;;;;;20.24;60.07;99279.44;5115713;28;20043;-66
2021/06/16 03:14:34;;;;;;;5.43;2.17;;;;;;;20.22;60.44;99286.94;5116575;28;20372;-66
2021/06/16 03:17:01;;;;;;;6.22;2.20;;;;;;;20.25;60.32;99286.44;5116874;28;20030;-66
2021/06/16 03:19:27;;;;;;;3.13;2.15;;;;;;;20.22;60.22;99289.63;5115105;28;20488;-66
2021/06/16 03:21:55;;;;;;;4.75;2.00;;;;;;;20.23;60.64;99300.13;5116576;28;20034;-66
2021/06/16 03:24:22;;;;;;;5.10;2.30;;;;;;;20.13;60.84;99301.78;5115729;28;20016;-66
2021/06/16 03:26:49;;;;;;;3.90;2.28;;;;;;;20.19;60.84;99301.66;5114619;28;20262;-66
2021/06/16 03:29:15;;;;;;;3.58;2.35;;;;;;;20.28;60.58;99294.03;5115995;28;20039;-66
2021/06/16 03:31:41;;;;;;;5.57;2.15;;;;;;;20.28;60.72;99302.13;5117211;28;20247;-66
2021/06/16 03:34:08;;;;;;;3.17;1.95;;;;;;;20.33;60.64;99299.53;5115565;28;20031;-66
2021/06/16 03:36:36;;;;;;;3.35;1.90;;;;;;;20.43;60.26;99299.78;5116131;28;20024;-66
2021/06/16 03:39:04;;;;;;;4.20;1.88;;;;;;;20.48;60.19;99291.00;5115592;28;20140;-66
2021/06/16 03:41:30;;;;;;;6.88;1.95;;;;;;;20.43;60.16;99290.91;5115412;28;20056;-66
2021/06/16 03:43:58;;;;;;;5.45;1.92;;;;;;;20.52;60.34;99289.47;5116167;28;20031;-66
2021/06/16 03:46:25;;;;;;;7.53;2.15;;;;;;;20.62;59.80;99293.19;5116414;28;20219;-66
2021/06/16 03:48:53;;;;;;;8.13;2.35;;;;;;;20.63;59.82;99297.50;5117196;28;20338;-66
2021/06/16 03:51:19;;;;;;;2.38;1.80;;;;;;;20.65;59.85;99300.78;5122560;28;20034;-66
2021/06/16 03:53:44;;;;;;;2.90;2.45;;;;;;;20.69;60.13;99309.19;5118950;28;20027;-66
2021/06/16 03:56:11;;;;;;;4.75;1.92;;;;;;;20.82;59.97;99305.44;5116523;28;20031;-66
2021/06/16 03:58:39;;;;;;;3.72;2.17;;;;;;;20.87;59.64;99302.84;5115014;28;20337;-66
2021/06/16 04:01:04;;;;;;;8.02;2.67;;;;;;;20.88;59.72;99301.78;5116071;28;20046;-66
2021/06/16 04:03:30;;;;;;;8.45;1.85;;;;;;;21.02;59.46;99309.34;5116336;28;20233;-66
2021/06/16 04:05:56;;;;;;;2.47;2.08;;;;;;;20.98;59.52;99307.38;5118547;28;20379;-66
2021/06/16 04:08:21;;;;;;;5.10;2.30;;;;;;;20.90;59.70;99311.25;5122146;28;20095;-66
2021/06/16 04:10:48;;;;;;;3.28;2.03;;;;;;;20.82;59.72;99303.56;5121051;28;20055;-66
2021/06/16 04:13:14;;;;;;;3.03;1.98;;;;;;;20.81;59.80;99287.66;5123215;28;20045;-66
2021/06/16 04:15:39;;;;;;;4.60;2.35;;;;;;;20.68;60.09;99272.59;5118509;28;20035;-65
2021/06/16 04:18:06;;;;;;;7.18;3.28;;;;;;;20.80;59.83;99272.53;5115471;28;20035;-66
2021/06/16 04:20:32;;;;;;;5.45;2.28;;;;;;;21.10;58.99;99285.78;5116312;28;20364;-66
2021/06/16 04:22:57;;;;;;;4.18;1.98;;;;;;;21.01;59.58;99298.81;5115729;28;20038;-66
2021/06/16 04:25:24;;;;;;;3.00;2.10;;;;;;;21.17;59.07;99302.59;5115280;28;20042;-66
2021/06/16 04:27:51;;;;;;;5.53;2.17;;;;;;;21.17;59.03;99297.22;5116101;28;20028;-66
2021/06/16 04:30:17;;;;;;;5.07;2.13;;;;;;;21.15;58.92;99288.56;5114410;28;20471;-66
2021/06/16 04:32:42;;;;;;;6.25;2.22;;;;;;;21.08;59.40;99298.66;5116851;28;20036;-66
2021/06/16 04:35:09;;;;;;;4.20;2.50;;;;;;;21.01;59.13;99291.56;5114187;28;20468;-66
2021/06/16 04:37:36;;;;;;;3.10;1.98;;;;;;;21.08;59.03;99287.91;5114731;28;20373;-66
2021/06/16 04:40:03;;;;;;;6.38;1.98;;;;;;;21.23;58.15;99280.13;5115864;28;20031;-66
2021/06/16 04:42:28;;;;;;;5.00;2.17;;;;;;;21.11;58.47;99282.84;5114490;28;20084;-66
2021/06/16 04:44:53;;;;;;;3.08;1.90;;;;;;;21.16;58.14;99272.19;5115218;28;20338;-66
2021/06/16 04:47:19;;;;;;;5.13;2.60;;;;;;;21.16;58.10;99260.59;5115573;28;20066;-66
2021/06/16 04:49:45;;;;;;;6.15;2.38;;;;;;;21.28;58.46;99282.91;5114987;28;20309;-66
2021/06/16 04:52:11;;;;;;;4.32;2.10;;;;;;;21.39;57.68;99283.91;5115171;28;20024;-66
2021/06/16 04:54:37;;;;;;;3.45;1.98;;;;;;;21.65;57.51;99286.78;5113699;28;20123;-66
2021/06/16 04:57:04;;;;;;;3.25;2.25;;;;;;;21.85;56.72;99296.28;5115066;28;20252;-66
2021/06/16 04:59:30;;;;;;;6.68;1.80;;;;;;;21.85;56.67;99299.78;5115022;28;20036;-66
2021/06/16 05:01:55;;;;;;;10.57;2.45;;;;;;;21.89;56.77;99310.88;5114302;28;20047;-66
2021/06/16 05:04:21;;;;;;;8.10;2.47;;;;;;;22.15;56.18;99323.72;5114527;28;20041;-66
2021/06/16 05:06:46;;;;;;;4.63;2.00;;;;;;;22.12;56.08;99326.91;5114976;28;20348;-66
2021/06/16 05:09:12;;;;;;;5.28;2.83;;;;;;;22.09;55.87;99332.78;5114570;28;20069;-66
2021/06/16 05:11:37;;;;;;;3.50;1.83;;;;;;;22.15;56.30;99333.69;5115288;28;20251;-66
2021/06/16 05:14:03;;;;;;;7.25;2.10;;;;;;;22.22;56.25;99334.31;5114023;28;20039;-66
2021/06/16 05:16:28;;;;;;;7.68;2.15;;;;;;;22.02;56.59;99339.38;5120389;28;20042;-66
2021/06/16 05:18:56;;;;;;;8.95;2.28;;;;;;;22.03;56.63;99341.88;5121065;28;20023;-66
2021/06/16 05:21:21;;;;;;;5.15;2.72;;;;;;;21.86;57.13;99346.41;5116139;28;20083;-66
2021/06/16 05:23:47;;;;;;;5.57;1.90;;;;;;;21.70;57.84;99345.31;5113852;28;20033;-66
2021/06/16 05:26:13;;;;;;;3.30;2.33;;;;;;;21.67;57.69;99354.72;5108732;28;20225;-66
2021/06/16 05:28:38;;;;;;;5.43;2.10;;;;;;;21.66;57.74;99346.88;5114850;28;20015;-66
2021/06/16 05:31:05;;;;;;;3.80;2.15;;;;;;;21.71;57.61;99371.19;5118189;28;20327;-66
2021/06/16 05:33:31;;;;;;;5.07;2.63;;;;;;;21.86;57.15;99367.97;5120917;28;20023;-66
2021/06/16 05:35:57;;;;;;;5.18;2.00;;;;;;;22.17;56.50;99370.13;5118630;28;20062;-66
2021/06/16 05:38:23;;;;;;;6.18;2.17;;;;;;;22.12;56.74;99375.44;5119364;28;20034;-66
2021/06/16 05:40:48;;;;;;;4.05;1.92;;;;;;;22.14;56.57;99367.09;5102171;28;20032;-66
2021/06/16 05:43:14;;;;;;;9.23;2.60;;;;;;;22.12;57.01;99375.44;5101680;28;20024;-66
2021/06/16 05:45:39;;;;;;;3.40;2.00;;;;;;;22.21;56.07;99371.25;5101550;28;20048;-66
2021/06/16 05:48:05;;;;;;;2.40;2.20;;;;;;;22.20;56.52;99369.63;5102360;28;20028;-66
2021/06/16 05:50:30;;;;;;;3.40;2.22;;;;;;;22.09;56.80;99378.63;5105867;28;20091;-66
2021/06/16 05:52:56;;;;;;;4.82;2.33;;;;;;;22.03;57.19;99376.09;5105496;28;20244;-66
2021/06/16 05:55:21;;;;;;;4.50;1.80;;;;;;;21.92;57.39;99385.88;5105673;28;20228;-66
2021/06/16 05:57:47;;;;;;;4.68;2.40;;;;;;;22.03;57.26;99376.09;5115577;28;20060;-66
2021/06/16 06:00:13;;;;;;;5.65;1.88;;;;;;;22.04;57.69;99385.81;5118973;28;20034;-66
2021/06/16 06:02:38;;;;;;;7.70;2.25;;;;;;;22.09;57.52;99394.00;5116816;28;20023;-65
2021/06/16 06:05:05;;;;;;;6.30;2.42;;;;;;;22.16;57.54;99398.16;5118001;28;20043;-66
2021/06/16 06:07:30;;;;;;;4.90;2.28;;;;;;;22.19;57.47;99404.94;5122671;28;20066;-66
2021/06/16 06:09:56;;;;;;;5.88;2.05;;;;;;;22.24;57.57;99403.13;5124569;28;20035;-66
2021/06/16 06:12:21;;;;;;;4.55;2.10;;;;;;;22.15;57.44;99393.00;5117556;28;20023;-66
2021/06/16 06:14:47;;;;;;;6.78;2.22;;;;;;;22.20;57.75;99407.38;5118107;28;20340;-66
2021/06/16 06:17:12;;;;;;;8.07;2.45;;;;;;;22.28;57.22;99412.38;5117153;28;20035;-66
2021/06/16 06:19:38;;;;;;;6.80;2.70;;;;;;;22.20;57.67;99411.97;5121346;27;20199;-66
2021/06/16 06:22:03;;;;;;;7.70;2.30;;;;;;;22.16;57.71;99416.22;5124060;28;20061;-66
2021/06/16 06:24:29;;;;;;;5.18;2.78;;;;;;;22.18;57.61;99414.09;5120342;28;20024;-66
2021/06/16 06:26:54;;;;;;;7.85;2.35;;;;;;;22.16;57.56;99427.00;5117535;28;20028;-66
2021/06/16 06:29:21;;;;;;;5.78;2.47;;;;;;;22.12;57.45;99426.69;5118085;28;20035;-66
2021/06/16 06:31:47;;;;;;;3.38;2.38;;;;;;;22.26;57.71;99429.84;5116974;28;20050;-66
2021/06/16 06:34:12;;;;;;;2.65;2.30;;;;;;;22.27;57.96;99447.69;5117127;28;20262;-66
2021/06/16 06:36:38;;;;;;;4.57;2.50;;;;;;;22.13;58.10;99440.97;5109905;28;20236;-66
2021/06/16 06:39:03;;;;;;;4.15;2.45;;;;;;;22.21;58.51;99436.00;5107464;28;20036;-66
2021/06/16 06:41:29;;;;;;;3.97;2.38;;;;;;;22.29;58.58;99437.47;5106089;28;20020;-66
2021/06/16 06:43:54;;;;;;;6.30;2.90;;;;;;;22.36;58.71;99431.91;5107514;27;20028;-66
2021/06/16 06:46:20;;;;;;;18.55;4.60;;;;;;;22.49;58.63;99437.78;5107078;28;20368;-66
2021/06/16 06:48:46;;;;;;;5.70;3.63;;;;;;;22.66;58.10;99429.66;5106811;28;20137;-66
2021/06/16 06:51:11;;;;;;;10.98;2.65;;;;;;;22.79;57.28;99426.59;5108235;28;20016;-66
2021/06/16 06:53:37;;;;;;;5.20;2.28;;;;;;;22.91;56.68;99424.66;5107080;28;20076;-66
2021/06/16 06:56:02;;;;;;;10.27;2.67;;;;;;;23.05;56.22;99429.69;5106495;28;20032;-66
2021/06/16 06:58:29;;;;;;;8.90;3.10;;;;;;;23.02;54.95;99428.31;5105740;28;20058;-66
2021/06/16 07:00:54;;;;;;;6.82;2.40;;;;;;;22.85;55.52;99425.63;5103412;28;20024;-66
2021/06/16 07:03:20;;;;;;;6.85;2.05;;;;;;;22.87;54.98;99423.50;5103042;28;20222;-65
2021/06/16 07:05:45;;;;;;;5.18;2.65;;;;;;;22.75;55.49;99419.25;5102441;28;20032;-66
2021/06/16 07:08:10;;;;;;;4.20;2.50;;;;;;;22.88;55.20;99419.72;5102989;28;20028;-66
2021/06/16 07:10:36;;;;;;;5.93;2.85;;;;;;;22.92;55.17;99418.19;5103115;28;20031;-66
2021/06/16 07:13:03;;;;;;;5.82;2.65;;;;;;;22.91;55.29;99416.56;5102554;28;20031;-66
2021/06/16 07:15:32;;;;;;;11.75;4.05;;;;;;;22.95;55.51;99432.25;5103279;28;20252;-66
2021/06/16 07:17:57;;;;;;;10.57;4.15;;;;;;;22.99;55.41;99425.28;5103359;28;20022;-65
2021/06/16 07:20:23;;;;;;;6.53;3.10;;;;;;;23.10;55.25;99427.88;5102078;28;20387;-66
2021/06/16 07:22:49;;;;;;;9.85;3.70;;;;;;;23.07;55.19;99419.44;5102829;28;20028;-66
2021/06/16 07:25:16;;;;;;;8.75;3.80;;;;;;;23.11;54.62;99418.69;5102897;28;20315;-66
2021/06/16 07:27:43;;;;;;;5.93;2.97;;;;;;;23.10;54.50;99425.16;5102763;28;20026;-66
2021/06/16 07:30:09;;;;;;;6.63;2.95;;;;;;;23.12;54.42;99417.63;5102653;28;20024;-66
2021/06/16 07:32:35;;;;;;;5.03;2.78;;;;;;;23.21;54.25;99409.91;5102735;28;20043;-66
2021/06/16 07:35:01;;;;;;;6.30;3.00;;;;;;;23.63;53.83;99426.31;5102030;28;20032;-66
2021/06/16 07:37:26;;;;;;;8.05;2.45;;;;;;;23.54;53.05;99428.66;5103038;28;20043;-66
2021/06/16 07:39:54;;;;;;;7.80;2.65;;;;;;;23.66;52.96;99422.31;5102583;28;20098;-66
2021/06/16 07:42:19;;;;;;;3.80;2.25;;;;;;;23.77;53.10;99427.56;5102334;28;20024;-66
2021/06/16 07:44:45;;;;;;;9.13;3.20;;;;;;;23.96;52.71;99429.91;5102266;28;20051;-66
2021/06/16 07:47:10;;;;;;;5.40;2.60;;;;;;;23.96;52.40;99435.31;5102329;28;20038;-66
2021/06/16 07:49:36;;;;;;;5.40;2.70;;;;;;;23.88;52.55;99433.88;5102442;28;20262;-65
2021/06/16 07:52:02;;;;;;;4.95;2.83;;;;;;;23.89;52.59;99433.63;5102310;28;20203;-66
2021/06/16 07:54:27;;;;;;;8.50;3.10;;;;;;;23.86;52.93;99436.00;5102191;28;20206;-66
2021/06/16 07:56:52;;;;;;;10.02;2.35;;;;;;;23.95;53.10;99434.50;5102128;28;20032;-66
2021/06/16 07:59:18;;;;;;;5.45;2.80;;;;;;;23.91;52.70;99427.94;5102358;28;20038;-66
2021/06/16 08:01:44;;;;;;;12.20;2.85;;;;;;;24.11;52.89;99425.44;5102499;28;20065;-66
2021/06/16 08:04:09;;;;;;;11.60;3.70;;;;;;;24.41;52.59;99426.78;5101556;28;20260;-66
2021/06/16 08:06:35;;;;;;;9.45;2.88;;;;;;;24.44;51.53;99421.66;5101796;28;20042;-66
2021/06/16 08:09:00;;;;;;;3.78;2.45;;;;;;;24.61;51.56;99415.28;5106002;28;20031;-66
2021/06/16 08:11:26;;;;;;;10.73;3.03;;;;;;;24.84;50.38;99417.56;5104284;28;20051;-66
2021/06/16 08:13:52;;;;;;;6.53;2.22;;;;;;;24.94;49.75;99414.91;5106626;28;20020;-66
2021/06/16 08:16:18;;;;;;;8.43;2.55;;;;;;;24.71;50.10;99423.44;5106033;28;20078;-66
2021/06/16 08:18:49;;;;;;;8.00;3.63;;;;;;;24.80;50.74;99432.72;5105221;28;20023;-66
2021/06/16 08:21:16;;;;;;;5.63;2.40;;;;;;;24.72;49.83;99423.19;5105289;28;20038;-66
2021/06/16 08:23:43;;;;;;;5.22;2.50;;;;;;;24.65;51.17;99443.44;5104977;28;20047;-66
2021/06/16 08:26:09;;;;;;;4.80;2.75;;;;;;;24.73;51.11;99427.53;5102539;28;20028;-66
2021/06/16 08:28:35;;;;;;;12.35;2.90;;;;;;;24.71;51.30;99418.84;5101478;28;20065;-66
2021/06/16 08:31:00;;;;;;;10.25;2.72;;;;;;;24.71;50.83;99429.69;5101113;28;20027;-66
2021/06/16 08:33:26;;;;;;;4.93;2.60;;;;;;;24.66;51.29;99434.25;5100980;28;20027;-66
2021/06/16 08:35:51;;;;;;;6.43;2.85;;;;;;;24.52;52.06;99429.31;5101218;28;20046;-65
2021/06/16 08:38:17;;;;;;;6.15;2.65;;;;;;;24.27;52.88;99433.72;5101503;28;20016;-66
2021/06/16 08:40:43;;;;;;;4.03;2.58;;;;;;;24.33;53.02;99440.78;5101502;28;20043;-66
2021/06/16 08:43:08;;;;;;;6.65;2.88;;;;;;;24.09;53.15;99441.13;5101452;28;20071;-66
2021/06/16 08:45:38;;;;;;;3.75;2.45;;;;;;;24.22;52.78;99445.28;5100901;28;20036;-66
2021/06/16 08:48:04;;;;;;;7.57;2.70;;;;;;;24.13;53.12;99442.25;5101582;28;20032;-65
2021/06/16 08:50:30;;;;;;;10.15;2.58;;;;;;;23.91;53.75;99446.88;5101705;28;20043;-66
2021/06/16 08:52:56;;;;;;;7.47;3.40;;;;;;;23.89;54.01;99433.63;5101432;28;20400;-65
2021/06/16 08:55:21;;;;;;;8.63;2.78;;;;;;;23.84;54.78;99441.69;5101496;28;20391;-66
2021/06/16 08:57:48;;;;;;;6.75;2.53;;;;;;;23.91;54.31;99446.88;5101163;28;20067;-66
2021/06/16 09:00:15;;;;;;;4.10;2.50;;;;;;;23.93;54.29;99462.84;5101486;28;20024;-66
2021/06/16 09:02:41;;;;;;;6.07;2.67;;;;;;;23.92;53.13;99466.63;5100957;28;20016;-66
2021/06/16 09:05:07;;;;;;;4.72;2.38;;;;;;;23.86;53.14;99466.56;5101064;28;20048;-66
2021/06/16 09:07:34;;;;;;;5.15;2.78;;;;;;;23.81;53.71;99460.28;5101564;28;20028;-66
2021/06/16 09:10:08;;;;;;;10.38;3.05;;;;;;;23.63;54.58;99464.16;5101122;28;20107;-66
2021/06/16 09:12:37;;;;;;;8.18;2.42;;;;;;;23.54;55.09;99466.50;5101305;28;20036;-66
2021/06/16 09:15:09;;;;;;;10.15;3.05;;;;;;;23.45;55.66;99459.88;5101139;28;20101;-66
2021/06/16 09:17:34;;;;;;;7.18;3.00;;;;;;;23.53;56.06;99470.25;5101030;28;20286;-66
2021/06/16 09:20:00;;;;;;;8.48;3.17;;;;;;;23.56;56.44;99468.97;5102195;28;20035;-66
2021/06/16 09:22:29;;;;;;;5.75;3.00;;;;;;;23.65;55.99;99472.84;5106598;28;20343;-66
2021/06/16 09:24:56;;;;;;;8.88;2.92;;;;;;;23.56;55.97;99477.06;5108844;28;20043;-66
2021/06/16 09:27:51;;;;;;;5.32;3.33;;;;;;;23.54;55.66;99473.78;5105979;28;20035;-66
2021/06/16 09:30:19;;;;;;;6.13;2.58;;;;;;;23.37;55.82;99476.53;5110189;28;20032;-66
2021/06/16 09:32:53;;;;;;;5.72;2.85;;;;;;;23.51;55.68;99468.88;5108215;28;20035;-66
2021/06/16 09:35:19;;;;;;;5.95;2.53;;;;;;;23.50;55.88;99484.25;5105476;28;20099;-66
2021/06/16 09:37:44;;;;;;;7.57;2.90;;;;;;;23.52;55.73;99489.41;5102155;28;20050;-66
2021/06/16 09:40:10;;;;;;;11.20;2.85;;;;;;;23.58;55.79;99493.84;5106247;28;20036;-66
2021/06/16 09:42:36;;;;;;;10.07;3.20;;;;;;;23.30;57.37;99494.00;5104801;28;20036;-66
2021/06/16 09:45:03;;;;;;;4.97;2.63;;;;;;;23.20;57.44;99492.81;5104147;28;20084;-66
2021/06/16 09:47:29;;;;;;;13.93;3.03;;;;;;;23.22;57.78;99500.66;5103386;28;20091;-66
2021/06/16 09:50:00;;;;;;;6.15;2.63;;;;;;;23.13;57.96;99494.06;5104093;28;20093;-66
2021/06/16 09:52:26;;;;;;;8.57;2.55;;;;;;;23.22;57.24;99492.56;5104541;28;20040;-66
2021/06/16 09:54:52;;;;;;;6.35;2.53;;;;;;;23.31;56.25;99501.06;5103016;28;20028;-66
2021/06/16 09:57:17;;;;;;;4.80;2.40;;;;;;;23.55;55.44;99492.47;5104119;28;20034;-66
2021/06/16 09:59:45;;;;;;;7.38;2.97;;;;;;;23.64;55.08;99494.72;5104366;28;20033;-66
2021/06/16 10:02:22;;;;;;;8.43;3.75;;;;;;;23.53;55.92;99493.75;5104428;28;20035;-66
2021/06/16 10:04:54;;;;;;;10.20;3.28;;;;;;;23.68;55.82;99498.56;5103974;28;20040;-66
2021/06/16 10:07:25;;;;;;;11.15;2.70;;;;;;;24.00;55.16;99490.53;5103547;28;20035;-66
2021/06/16 10:09:51;;;;;;;6.03;2.90;;;;;;;24.32;54.42;99499.50;5103503;28;20313;-66
2021/06/16 10:12:18;;;;;;;4.40;2.45;;;;;;;24.41;52.27;99497.97;5104075;28;20051;-66
2021/06/16 10:14:43;;;;;;;6.18;2.55;;;;;;;24.27;50.81;99512.19;5104386;28;20225;-66
2021/06/16 10:17:09;;;;;;;7.05;2.80;;;;;;;24.32;51.11;99509.53;5104380;28;20016;-66
2021/06/16 10:19:35;;;;;;;3.78;2.38;;;;;;;24.37;50.09;99512.25;5103154;28;20318;-66
2021/06/16 10:22:04;;;;;;;5.00;2.63;;;;;;;24.51;49.95;99521.59;5103583;28;20105;-66
2021/06/16 10:24:29;;;;;;;4.30;2.60;;;;;;;24.68;49.85;99529.56;5103838;28;20099;-66
2021/06/16 10:27:00;;;;;;;4.65;2.40;;;;;;;24.58;49.11;99530.31;5103749;28;20427;-66
2021/06/16 10:29:32;;;;;;;3.65;2.40;;;;;;;24.52;49.17;99517.81;5103422;28;20059;-66
2021/06/16 10:32:07;;;;;;;5.00;2.78;;;;;;;24.50;49.34;99520.78;5104167;28;20032;-66
2021/06/16 10:34:50;;;;;;;3.20;2.47;;;;;;;24.60;48.40;99520.03;5102722;28;20039;-66
2021/06/16 10:37:37;;;;;;;4.50;2.40;;;;;;;24.88;49.10;99531.59;5104472;28;20134;-66
2021/06/16 10:40:18;;;;;;;4.70;2.65;;;;;;;25.08;47.78;99529.91;5103612;28;20032;-66
2021/06/16 10:43:02;;;;;;;3.72;2.03;;;;;;;25.25;46.89;99532.44;5103799;28;20034;-66
2021/06/16 10:45:34;;;;;;;2.10;1.90;;;;;;;25.14;46.20;99523.44;5102642;28;20058;-66
2021/06/16 10:48:04;;;;;;;3.80;1.83;;;;;;;25.33;46.27;99531.94;5101579;28;20035;-66
2021/06/16 10:50:47;;;;;;;6.38;2.10;;;;;;;25.69;45.10;99521.25;5103554;28;20062;-66
2021/06/16 10:53:18;;;;;;;3.63;2.20;;;;;;;25.99;44.38;99515.91;5101644;28;20043;-66
2021/06/16 10:55:53;;;;;;;3.13;1.90;;;;;;;26.11;44.04;99517.59;5103889;28;20036;-66
2021/06/16 10:58:33;;;;;;;4.25;2.38;;;;;;;26.14;44.67;99512.44;5101809;28;20099;-66
2021/06/16 11:01:19;;;;;;;2.40;1.92;;;;;;;26.26;44.18;99517.59;5103563;28;20411;-66
2021/06/16 11:03:47;;;;;;;3.33;2.13;;;;;;;26.32;43.83;99505.66;5102681;28;20032;-66
2021/06/16 11:06:37;;;;;;;3.35;2.10;;;;;;;26.59;42.96;99506.22;5103388;28;20043;-66
2021/06/16 11:09:12;;;;;;;3.25;1.90;;;;;;;26.57;43.34;99497.53;5102277;28;20043;-67
2021/06/16 11:11:49;;;;;;;2.35;2.00;;;;;;;26.68;43.66;99490.19;5101290;28;20036;-66
2021/06/16 11:14:33;;;;;;;2.03;1.83;;;;;;;26.74;43.00;99494.53;5102388;28;20035;-67
2021/06/16 11:17:06;;;;;;;3.80;2.50;;;;;;;26.63;42.82;99496.44;5102930;28;20036;-67
2021/06/16 11:19:34;;;;;;;3.08;2.35;;;;;;;26.61;43.27;99500.53;5102883;28;20039;-67
2021/06/16 11:22:03;;;;;;;3.10;2.13;;;;;;;26.66;42.93;99501.34;5102754;28;20051;-67
2021/06/16 11:25:06;;;;;;;2.92;2.05;;;;;;;26.72;43.02;99505.66;5102824;28;20032;-67
2021/06/16 11:27:50;;;;;;;4.50;2.17;;;;;;;26.07;41.98;99496.41;5102700;28;20031;-67
2021/06/16 11:30:29;;;;;;;4.30;1.90;;;;;;;26.00;42.89;99508.59;5102423;28;20230;-67
2021/06/16 11:33:28;;;;;;;4.18;1.63;;;;;;;25.85;43.31;99506.66;5102479;28;20038;-66
2021/06/16 11:36:27;;;;;;;1.52;1.42;;;;;;;25.98;42.51;99495.28;5098135;28;20039;-67